createdAt,value
2022-08-19T00:03:43.053Z,17.32
2022-08-19T00:09:05.359Z,17.49
2022-08-19T00:14:33.063Z,17.48
2022-08-19T00:19:54.993Z,17.36
2022-08-19T00:25:18.111Z,17.44
2022-08-19T00:30:53.363Z,17.41
2022-08-19T00:36:15.333Z,17.29
2022-08-19T00:41:37.641Z,17.08
2022-08-19T00:47:01.185Z,17.27
2022-08-19T00:52:30.655Z,17.25
2022-08-19T00:57:56.014Z,17.16
2022-08-19T01:03:21.314Z,17.08
2022-08-19T01:08:43.375Z,16.82
2022-08-19T01:14:07.423Z,16.68
2022-08-19T01:19:44.239Z,16.77
2022-08-19T01:25:15.013Z,16.65
2022-08-19T01:30:39.845Z,16.52
2022-08-19T01:36:10.511Z,16.78
2022-08-19T01:41:33.012Z,16.97
2022-08-19T01:46:54.984Z,16.71
2022-08-19T01:52:16.878Z,16.98
2022-08-19T01:57:41.027Z,16.94
2022-08-19T02:03:03.098Z,16.94
2022-08-19T02:08:25.205Z,16.46
2022-08-19T02:13:47.734Z,16.43
2022-08-19T02:19:09.986Z,16.91
2022-08-19T02:24:32.694Z,16.92
2022-08-19T02:29:55.014Z,16.90
2022-08-19T02:35:17.157Z,16.85
2022-08-19T02:40:41.724Z,16.72
2022-08-19T02:46:13.334Z,16.93
2022-08-19T02:51:45.146Z,16.97
2022-08-19T02:57:07.744Z,16.94
2022-08-19T03:02:29.794Z,17.01
2022-08-19T03:07:51.734Z,16.99
2022-08-19T03:13:25.962Z,16.58
2022-08-19T03:18:48.764Z,16.87
2022-08-19T03:24:13.019Z,16.75
2022-08-19T03:29:42.963Z,16.66
2022-08-19T03:35:06.484Z,17.22
2022-08-19T03:40:28.754Z,17.02
2022-08-19T03:45:51.235Z,17.34
2022-08-19T03:51:31.024Z,17.49
2022-08-19T03:56:55.810Z,17.63
2022-08-19T04:02:17.436Z,17.82
2022-08-19T04:07:39.614Z,17.98
2022-08-19T04:13:01.365Z,18.12
2022-08-19T04:18:23.254Z,18.17
2022-08-19T04:23:45.925Z,18.41
2022-08-19T04:29:20.013Z,18.61
2022-08-19T04:35:15.805Z,18.86
2022-08-19T04:40:44.875Z,19.22
2022-08-19T04:46:12.564Z,19.48
2022-08-19T04:51:56.537Z,19.67
2022-08-19T04:57:18.885Z,19.88
2022-08-19T05:02:42.434Z,20.22
2022-08-19T05:08:04.805Z,20.14
2022-08-19T05:13:28.274Z,20.52
2022-08-19T05:19:09.554Z,20.31
2022-08-19T05:24:32.766Z,20.66
2022-08-19T05:29:55.365Z,20.57
2022-08-19T05:35:20.829Z,20.87
2022-08-19T05:40:43.205Z,20.79
2022-08-19T05:46:07.626Z,21.38
2022-08-19T05:51:29.775Z,21.51
2022-08-19T05:56:53.284Z,21.87
2022-08-19T06:02:16.008Z,22.21
2022-08-19T06:07:40.268Z,22.53
2022-08-19T06:13:02.304Z,22.48
2022-08-19T06:18:24.736Z,22.39
2022-08-19T06:23:48.708Z,22.76
2022-08-19T06:29:12.245Z,22.95
2022-08-19T06:34:45.738Z,23.27
2022-08-19T06:40:09.934Z,23.32
2022-08-19T06:45:35.578Z,23.41
2022-08-19T06:51:01.137Z,23.49
2022-08-19T06:56:35.981Z,23.57
2022-08-19T07:01:58.555Z,23.81
2022-08-19T07:07:22.113Z,24.22
2022-08-19T07:12:44.585Z,24.44
2022-08-19T07:18:07.137Z,24.80
2022-08-19T07:23:34.834Z,24.57
2022-08-19T07:29:00.745Z,24.51
2022-08-19T07:34:23.935Z,24.73
2022-08-19T07:39:46.559Z,25.19
2022-08-19T07:45:12.447Z,25.04
2022-08-19T07:50:34.495Z,24.94
2022-08-19T07:56:00.954Z,24.54
2022-08-19T08:01:26.586Z,24.87
2022-08-19T08:07:07.396Z,24.56
2022-08-19T08:12:35.135Z,24.91
2022-08-19T08:17:59.233Z,24.77
2022-08-19T08:23:26.758Z,24.74
2022-08-19T08:28:49.766Z,24.66
2022-08-19T08:34:13.775Z,24.72
2022-08-19T08:39:38.183Z,24.85
2022-08-19T08:45:04.044Z,24.81
2022-08-19T08:50:42.587Z,24.70
2022-08-19T08:56:09.396Z,24.51
2022-08-19T09:01:31.575Z,24.52
2022-08-19T09:07:22.866Z,25.10
2022-08-19T09:13:09.492Z,25.38
2022-08-19T09:18:48.438Z,25.48
2022-08-19T09:24:10.721Z,25.57
2022-08-19T09:29:32.336Z,25.71
2022-08-19T09:34:59.561Z,25.75
2022-08-19T09:40:22.297Z,25.81
2022-08-19T09:45:46.838Z,25.88
2022-08-19T09:51:12.516Z,25.79
2022-08-19T09:56:34.898Z,25.81
2022-08-19T10:01:57.586Z,25.70
2022-08-19T10:13:02.375Z,25.25
2022-08-19T10:18:26.785Z,25.30
2022-08-19T10:23:51.712Z,25.19
2022-08-19T10:29:32.925Z,25.14
2022-08-19T10:34:57.236Z,25.47
2022-08-19T10:40:19.769Z,25.16
2022-08-19T10:45:52.586Z,25.36
2022-08-19T10:51:37.555Z,25.45
2022-08-19T10:57:09.786Z,25.46
2022-08-19T11:02:34.394Z,25.58
2022-08-19T11:07:57.764Z,26.01
2022-08-19T11:13:20.854Z,26.06
2022-08-19T11:18:45.356Z,25.98
2022-08-19T11:24:12.893Z,25.96
2022-08-19T11:29:36.200Z,25.80
2022-08-19T11:34:57.945Z,26.03
2022-08-19T11:40:20.273Z,26.06
2022-08-19T11:45:42.966Z,26.08
2022-08-19T11:51:12.204Z,25.97
2022-08-19T11:56:33.988Z,25.84
2022-08-19T12:01:57.157Z,25.86
2022-08-19T12:07:19.434Z,25.69
2022-08-19T12:12:44.186Z,25.79
2022-08-19T12:18:11.575Z,25.85
2022-08-19T12:23:39.944Z,25.42
2022-08-19T12:29:02.088Z,25.42
2022-08-19T12:34:30.923Z,25.67
2022-08-19T12:39:57.871Z,25.69
2022-08-19T12:45:20.872Z,25.48
2022-08-19T12:50:46.876Z,25.57
2022-08-19T12:56:12.830Z,25.83
2022-08-19T13:01:35.686Z,26.01
2022-08-19T13:07:18.084Z,25.87
2022-08-19T13:12:53.351Z,25.69
2022-08-19T13:18:15.804Z,25.41
2022-08-19T13:23:38.015Z,25.71
2022-08-19T13:29:18.774Z,25.54
2022-08-19T13:34:40.869Z,25.44
2022-08-19T13:40:02.961Z,25.28
2022-08-19T13:45:27.784Z,25.38
2022-08-19T13:50:49.984Z,25.23
2022-08-19T13:56:17.745Z,25.28
2022-08-19T14:01:39.842Z,25.19
2022-08-19T14:07:02.878Z,24.81
2022-08-19T14:12:28.259Z,24.68
2022-08-19T14:17:51.625Z,24.99
2022-08-19T14:23:16.147Z,24.67
2022-08-19T14:28:38.326Z,24.87
2022-08-19T14:34:00.026Z,24.52
2022-08-19T14:39:23.022Z,24.30
2022-08-19T14:44:45.491Z,24.45
2022-08-19T14:50:17.863Z,24.54
2022-08-19T14:55:49.832Z,24.19
2022-08-19T15:01:23.517Z,24.36
2022-08-19T15:06:48.344Z,23.92
2022-08-19T15:12:12.035Z,23.96
2022-08-19T15:17:46.559Z,23.87
2022-08-19T15:23:09.067Z,23.72
2022-08-19T15:28:34.055Z,23.66
2022-08-19T15:34:00.664Z,23.72
2022-08-19T15:39:26.147Z,23.34
2022-08-19T15:44:48.966Z,23.23
2022-08-19T15:50:19.295Z,23.05
2022-08-19T15:55:46.666Z,23.13
2022-08-19T16:01:27.634Z,22.89
2022-08-19T16:06:53.525Z,22.95
2022-08-19T16:12:16.744Z,22.79
2022-08-19T16:17:56.477Z,22.63
2022-08-19T16:23:20.485Z,22.41
2022-08-19T16:28:50.824Z,22.26
2022-08-19T16:34:16.463Z,21.93
2022-08-19T16:39:43.598Z,21.94
2022-08-19T16:45:12.501Z,21.80
2022-08-19T16:50:48.728Z,21.64
2022-08-19T16:56:13.021Z,21.49
2022-08-19T17:01:34.950Z,21.28
2022-08-19T17:07:00.422Z,21.18
2022-08-19T17:12:31.614Z,20.91
2022-08-19T17:18:00.042Z,20.81
2022-08-19T17:23:36.833Z,20.79
2022-08-19T17:29:08.767Z,20.68
2022-08-19T17:34:31.482Z,20.49
2022-08-19T17:39:55.093Z,20.21
2022-08-19T17:45:18.246Z,20.20
2022-08-19T17:50:40.894Z,19.81
2022-08-19T17:56:03.117Z,19.60
2022-08-19T18:01:25.173Z,19.54
2022-08-19T18:06:53.838Z,19.44
2022-08-19T18:12:18.304Z,19.21
2022-08-19T18:17:40.604Z,19.00
2022-08-19T18:23:43.803Z,18.75
2022-08-19T18:28:49.516Z,18.76
2022-08-19T18:34:11.624Z,18.56
2022-08-19T18:39:51.643Z,18.37
2022-08-19T18:45:32.604Z,18.26
2022-08-19T18:50:55.707Z,18.12
2022-08-19T18:56:20.256Z,18.04
2022-08-19T19:01:51.055Z,17.71
2022-08-19T19:07:18.935Z,17.68
2022-08-19T19:12:44.942Z,17.72
2022-08-19T19:18:06.935Z,17.56
2022-08-19T19:23:28.994Z,17.38
2022-08-19T19:28:51.896Z,17.22
2022-08-19T19:34:29.381Z,17.31
2022-08-19T19:39:52.938Z,17.20
2022-08-19T19:45:17.316Z,17.14
2022-08-19T19:50:39.250Z,17.00
2022-08-19T19:56:03.104Z,17.06
2022-08-19T20:01:26.891Z,17.01
2022-08-19T20:06:49.124Z,16.80
2022-08-19T20:12:11.495Z,16.81
2022-08-19T20:17:33.924Z,16.40
2022-08-19T20:22:56.584Z,16.51
2022-08-19T20:28:19.212Z,16.36
2022-08-19T20:33:42.806Z,16.69
2022-08-19T20:39:06.417Z,16.33
2022-08-19T20:44:29.024Z,16.34
2022-08-19T20:49:52.145Z,16.24
2022-08-19T20:55:14.356Z,16.02
2022-08-19T21:00:41.256Z,16.00
2022-08-19T21:06:04.886Z,16.19
2022-08-19T21:11:27.557Z,16.11
2022-08-19T21:16:50.874Z,16.00
2022-08-19T21:22:12.785Z,15.95
2022-08-19T21:27:34.651Z,15.74
2022-08-19T21:32:56.815Z,15.63
2022-08-19T21:38:19.214Z,15.57
2022-08-19T21:43:41.045Z,15.53
2022-08-19T21:49:02.934Z,15.48
2022-08-19T21:54:25.175Z,15.40
2022-08-19T21:59:46.814Z,15.38
2022-08-19T22:05:09.896Z,15.17
2022-08-19T22:10:34.666Z,14.96
2022-08-19T22:15:56.946Z,15.15
2022-08-19T22:21:29.363Z,15.10
2022-08-19T22:27:22.571Z,15.10
2022-08-19T22:32:56.082Z,15.25
2022-08-19T22:38:21.485Z,15.10
2022-08-19T22:43:44.366Z,15.28
2022-08-19T22:49:08.355Z,15.10
2022-08-19T22:54:34.505Z,15.04
2022-08-19T23:00:01.004Z,15.29
2022-08-19T23:05:29.235Z,15.38
2022-08-19T23:10:51.508Z,15.40
2022-08-19T23:16:14.054Z,15.35
2022-08-19T23:21:37.766Z,15.08
2022-08-19T23:27:18.585Z,15.16
2022-08-19T23:32:41.325Z,15.25
2022-08-19T23:38:04.514Z,15.25
2022-08-19T23:43:29.756Z,15.20
2022-08-19T23:48:52.044Z,15.16
2022-08-19T23:54:13.964Z,15.00
2022-08-19T23:59:35.982Z,14.90
